Time;durP1;ratioP1;P1;durP2;ratioP2;P2;SDS_P1;SDS_P2;PMS_P1;PMS_P2;Temp;Humidity;BMP_temperature;BMP_pressure;BME280_temperature;BME280_humidity;BME280_pressure;Samples;Min_cycle;Max_cycle;Signal;HPM_P1;HPM_P2
2022/03/08 00:00:57;;;;;;;8.57;7.13;;;;;;;0.78;66.80;100040.69;5248075;23;20292;-74
2022/03/08 00:03:33;;;;;;;8.07;6.90;;;;;;;0.72;67.56;100041.28;5081375;28;20220;-75
2022/03/08 00:06:02;;;;;;;8.40;7.03;;;;;;;0.60;67.79;100034.53;5084786;28;20210;-75
2022/03/08 00:08:35;;;;;;;9.60;7.07;;;;;;;0.45;68.50;100051.81;5094818;22;20232;-75
2022/03/08 00:11:27;;;;;;;9.53;7.07;;;;;;;0.37;68.93;100056.97;5066410;28;20222;-76
2022/03/08 00:13:58;;;;;;;9.37;6.90;;;;;;;0.27;69.20;100059.66;5024561;28;20249;-79
2022/03/08 00:16:35;;;;;;;10.63;7.30;;;;;;;0.10;70.17;100049.00;5081725;22;20201;-77
2022/03/08 00:19:18;;;;;;;7.60;6.67;;;;;;;-0.11;71.41;100049.19;5070082;23;20247;-76
2022/03/08 00:22:28;;;;;;;9.20;6.53;;;;;;;-0.28;72.52;100055.19;5100254;22;20265;-77
2022/03/08 00:28:11;;;;;;;9.47;7.43;;;;;;;-0.49;74.40;100047.41;5080413;22;20223;-77
2022/03/08 00:31:20;;;;;;;9.63;7.57;;;;;;;-0.62;74.96;100049.50;5104268;22;20233;-78
2022/03/08 00:34:21;;;;;;;8.67;7.53;;;;;;;-0.78;76.14;100047.41;5172011;22;20224;-77
2022/03/08 00:37:19;;;;;;;8.93;6.90;;;;;;;-0.88;76.54;100043.94;5083257;22;20245;-74
2022/03/08 00:40:14;;;;;;;8.63;7.13;;;;;;;-0.93;76.50;100039.06;5079079;28;20207;-76
2022/03/08 00:42:46;;;;;;;9.10;7.03;;;;;;;-1.00;77.25;100043.25;5064886;28;20216;-80
2022/03/08 00:45:41;;;;;;;12.97;7.53;;;;;;;-1.18;78.67;100038.75;5069295;28;21060;-79
2022/03/08 00:48:27;;;;;;;10.27;7.30;;;;;;;-1.27;79.50;100043.03;5054478;23;20227;-74
2022/03/08 00:51:27;;;;;;;9.73;7.23;;;;;;;-1.32;79.86;100039.97;5084582;28;20214;-79
2022/03/08 00:54:07;;;;;;;9.07;7.27;;;;;;;-1.38;80.05;100043.97;5100886;22;20243;-79
2022/03/08 00:56:39;;;;;;;10.93;8.00;;;;;;;-1.42;80.83;100036.47;5094104;22;20225;-81
2022/03/08 00:59:05;;;;;;;9.47;7.10;;;;;;;-1.52;81.37;100036.44;5062635;28;20282;-75
2022/03/08 01:01:37;;;;;;;9.00;7.27;;;;;;;-1.61;82.24;100036.41;5075724;28;20211;-73
2022/03/08 01:04:15;;;;;;;8.50;7.13;;;;;;;-1.64;83.25;100036.69;5060866;28;20221;-79
2022/03/08 01:06:45;;;;;;;9.73;7.43;;;;;;;-1.74;84.08;100025.28;5150985;23;20216;-83
2022/03/08 01:09:15;;;;;;;9.17;7.37;;;;;;;-1.86;84.93;100028.00;5068880;22;20241;-78
2022/03/08 01:11:47;;;;;;;9.63;7.27;;;;;;;-1.93;86.44;100026.88;5092460;28;20229;-79
2022/03/08 01:14:15;;;;;;;8.83;7.50;;;;;;;-2.01;87.49;100026.69;5084320;28;21113;-74
2022/03/08 01:16:48;;;;;;;9.83;7.70;;;;;;;-2.09;88.12;100026.50;5084839;28;20235;-82
2022/03/08 01:19:18;;;;;;;10.53;7.60;;;;;;;-2.15;89.45;100023.56;5066494;28;20223;-82
2022/03/08 01:21:49;;;;;;;8.73;7.50;;;;;;;-2.20;89.91;100034.47;5083312;28;20229;-82
2022/03/08 01:24:20;;;;;;;8.93;7.23;;;;;;;-2.27;90.64;100034.13;5062906;28;20257;-80
2022/03/08 01:26:50;;;;;;;10.33;7.83;;;;;;;-2.28;91.54;100026.38;5076119;28;20216;-80
2022/03/08 01:29:20;;;;;;;10.50;7.30;;;;;;;-2.28;91.10;100034.25;5079766;28;20200;-77
2022/03/08 01:32:01;;;;;;;8.60;7.27;;;;;;;-2.39;92.30;100029.91;5049731;28;20232;-81
2022/03/08 01:34:34;;;;;;;10.13;7.53;;;;;;;-2.49;92.61;100031.63;5069131;28;20237;-82
2022/03/08 01:37:26;;;;;;;9.53;7.37;;;;;;;-2.57;93.12;100034.06;5085342;28;20221;-80
2022/03/08 01:40:04;;;;;;;7.77;6.77;;;;;;;-2.62;94.85;100025.75;5076447;28;20220;-81
2022/03/08 01:42:32;;;;;;;9.57;7.00;;;;;;;-2.63;95.37;100028.47;5071806;28;20225;-82
2022/03/08 01:45:06;;;;;;;8.17;6.90;;;;;;;-2.62;95.93;100027.53;5072597;28;20225;-82
2022/03/08 01:47:50;;;;;;;9.47;7.37;;;;;;;-2.68;96.92;100029.69;5071885;28;20244;-80
2022/03/08 01:50:24;;;;;;;8.83;7.67;;;;;;;-2.59;95.96;100028.09;5071739;28;20237;-81
2022/03/08 01:52:59;;;;;;;9.37;7.63;;;;;;;-2.61;96.61;100035.25;5073646;28;20252;-82
2022/03/08 01:55:30;;;;;;;8.90;7.60;;;;;;;-2.59;96.16;100033.34;5058773;28;20206;-81
2022/03/08 01:58:02;;;;;;;10.03;8.07;;;;;;;-2.60;95.86;100030.84;5086507;28;20224;-81
2022/03/08 02:00:35;;;;;;;9.97;8.10;;;;;;;-2.63;96.35;100031.09;5082453;28;20693;-82
2022/03/08 02:03:04;;;;;;;9.33;7.53;;;;;;;-2.49;95.19;100025.53;5068583;28;20686;-75
2022/03/08 02:05:34;;;;;;;9.63;8.47;;;;;;;-2.55;95.25;100026.88;5066841;28;20542;-74
2022/03/08 02:08:02;;;;;;;10.53;8.00;;;;;;;-2.40;95.52;100023.00;5045597;28;20312;-74
2022/03/08 02:10:28;;;;;;;11.33;8.53;;;;;;;-2.35;94.10;100025.22;5065898;28;20319;-74
2022/03/08 02:12:56;;;;;;;10.53;8.47;;;;;;;-2.40;94.33;100020.38;5065842;28;20235;-73
2022/03/08 02:15:26;;;;;;;8.90;7.80;;;;;;;-2.38;93.96;100021.06;5059453;28;20225;-74
2022/03/08 02:17:59;;;;;;;11.40;8.90;;;;;;;-2.30;93.46;100025.69;5049297;28;20225;-75
2022/03/08 02:20:27;;;;;;;11.77;8.57;;;;;;;-2.29;92.47;100019.47;5069250;28;20315;-74
2022/03/08 02:22:54;;;;;;;10.13;8.43;;;;;;;-2.36;92.15;100024.41;5060580;28;20255;-78
2022/03/08 02:25:29;;;;;;;10.93;8.80;;;;;;;-2.36;92.34;100020.94;5086373;28;20200;-79
2022/03/08 02:27:57;;;;;;;12.13;9.13;;;;;;;-2.35;92.61;100020.00;5077558;28;20220;-75
2022/03/08 02:30:26;;;;;;;10.13;9.07;;;;;;;-2.21;92.55;100014.41;5088953;22;20281;-77
2022/03/08 02:32:55;;;;;;;10.03;8.70;;;;;;;-2.19;90.10;100015.09;5076084;28;20221;-75
2022/03/08 02:35:40;;;;;;;10.37;8.40;;;;;;;-2.21;90.83;100022.28;5055875;28;20239;-76
2022/03/08 02:38:08;;;;;;;11.37;8.97;;;;;;;-2.27;91.55;100022.78;5081638;22;20236;-76
2022/03/08 02:40:45;;;;;;;11.13;8.87;;;;;;;-2.35;91.69;100017.38;5071253;28;20257;-81
2022/03/08 02:43:18;;;;;;;12.73;8.87;;;;;;;-2.38;91.71;100015.81;5072745;28;20197;-78
2022/03/08 02:45:49;;;;;;;11.10;9.07;;;;;;;-2.38;90.73;100020.25;5064176;28;20224;-77
2022/03/08 02:48:18;;;;;;;10.43;8.80;;;;;;;-2.41;91.14;100008.19;5071614;22;20283;-74
2022/03/08 02:50:47;;;;;;;12.80;9.43;;;;;;;-2.32;91.80;100017.94;5045571;28;20249;-75
2022/03/08 02:53:18;;;;;;;10.93;9.13;;;;;;;-2.34;91.05;100011.16;5072326;22;20221;-75
2022/03/08 02:55:49;;;;;;;12.53;9.73;;;;;;;-2.14;89.51;100020.78;5063149;28;20263;-75
2022/03/08 02:58:19;;;;;;;12.50;9.60;;;;;;;-2.13;89.77;100019.84;5064590;28;20221;-74
2022/03/08 03:00:49;;;;;;;11.17;9.10;;;;;;;-2.07;88.04;100021.97;5050492;28;20217;-74
2022/03/08 03:03:17;;;;;;;11.87;10.13;;;;;;;-2.16;89.12;100014.84;5068532;28;20201;-75
2022/03/08 03:05:47;;;;;;;10.37;9.23;;;;;;;-2.13;89.05;100019.00;5046700;28;20243;-75
2022/03/08 03:08:16;;;;;;;12.03;9.00;;;;;;;-2.05;88.31;100024.47;5066910;28;20220;-76
2022/03/08 03:10:44;;;;;;;10.27;9.17;;;;;;;-2.12;88.52;100021.50;5067913;28;20554;-74
2022/03/08 03:13:14;;;;;;;10.60;9.17;;;;;;;-2.10;88.01;100024.81;5067518;28;20221;-75
2022/03/08 03:15:43;;;;;;;11.53;9.20;;;;;;;-2.05;87.04;100029.72;5070150;28;20193;-74
2022/03/08 03:18:28;;;;;;;11.23;9.27;;;;;;;-2.01;87.96;100023.25;5069555;28;20247;-74
2022/03/08 03:20:57;;;;;;;10.93;8.97;;;;;;;-2.06;87.36;100028.88;5054718;28;20245;-76
2022/03/08 03:23:32;;;;;;;11.27;9.20;;;;;;;-2.13;88.47;100040.00;5054728;23;20299;-75
2022/03/08 03:25:59;;;;;;;12.70;9.57;;;;;;;-2.11;88.63;100040.72;5054937;28;20229;-76
2022/03/08 03:28:33;;;;;;;10.17;9.07;;;;;;;-2.18;88.13;100037.78;5071190;28;20233;-77
2022/03/08 03:31:04;;;;;;;11.43;9.53;;;;;;;-2.22;88.80;100039.81;5060377;23;20235;-76
2022/03/08 03:33:36;;;;;;;11.60;9.43;;;;;;;-2.17;88.68;100038.59;5070301;28;20284;-76
2022/03/08 03:36:07;;;;;;;13.60;9.60;;;;;;;-2.24;88.72;100040.94;5065066;23;20221;-76
2022/03/08 03:38:37;;;;;;;11.07;9.17;;;;;;;-2.33;89.50;100045.13;5085388;28;20231;-75
2022/03/08 03:41:12;;;;;;;13.33;9.50;;;;;;;-2.34;89.60;100037.41;5086728;22;20233;-78
2022/03/08 03:43:44;;;;;;;10.50;9.40;;;;;;;-2.29;89.10;100043.91;5081918;23;20236;-73
2022/03/08 03:46:11;;;;;;;11.93;9.77;;;;;;;-2.29;88.99;100046.53;5078051;28;20264;-76
2022/03/08 03:48:55;;;;;;;11.80;9.57;;;;;;;-2.25;88.83;100047.13;5073102;28;20224;-74
2022/03/08 03:51:23;;;;;;;11.70;9.37;;;;;;;-2.25;88.73;100041.88;5080701;22;20221;-75
2022/03/08 03:53:55;;;;;;;10.83;8.90;;;;;;;-2.27;88.72;100041.16;5053681;28;20245;-75
2022/03/08 03:56:27;;;;;;;11.00;9.43;;;;;;;-2.25;88.66;100047.97;5091254;28;20263;-76
2022/03/08 03:58:58;;;;;;;10.20;9.00;;;;;;;-2.23;88.55;100046.03;5075520;28;20245;-74
2022/03/08 04:01:26;;;;;;;12.37;9.37;;;;;;;-2.29;89.35;100043.09;5080517;22;20259;-74
2022/03/08 04:03:58;;;;;;;10.27;9.23;;;;;;;-2.24;90.06;100046.19;5040566;28;20576;-74
2022/03/08 04:06:28;;;;;;;13.53;10.20;;;;;;;-2.14;88.79;100044.41;5072602;28;20213;-74
2022/03/08 04:08:55;;;;;;;11.00;9.80;;;;;;;-2.11;89.42;100030.22;5072999;28;20236;-77
2022/03/08 04:11:24;;;;;;;12.87;9.23;;;;;;;-2.02;88.80;100032.06;5091114;22;20228;-75
2022/03/08 04:14:00;;;;;;;10.93;9.83;;;;;;;-2.01;89.22;100025.88;5090117;28;20233;-74
2022/03/08 04:16:36;;;;;;;11.37;9.70;;;;;;;-1.85;88.52;100021.78;5090053;28;20224;-75
2022/03/08 04:19:08;;;;;;;10.97;9.30;;;;;;;-1.80;88.30;100022.22;5096495;28;20239;-74
2022/03/08 04:21:36;;;;;;;12.43;9.30;;;;;;;-1.72;86.85;100020.72;5104909;28;20236;-75
2022/03/08 04:24:08;;;;;;;11.00;9.17;;;;;;;-1.82;87.10;100018.88;5101189;28;20235;-75
2022/03/08 04:26:39;;;;;;;10.97;9.60;;;;;;;-1.75;86.88;100023.63;5096602;28;20580;-76
2022/03/08 04:29:11;;;;;;;11.70;9.37;;;;;;;-1.73;87.62;100016.47;5093529;28;20192;-74
2022/03/08 04:31:38;;;;;;;11.83;9.13;;;;;;;-1.71;86.59;100023.22;5110191;28;20231;-75
2022/03/08 04:34:22;;;;;;;13.17;9.63;;;;;;;-1.58;85.32;100026.47;5092737;28;20235;-75
2022/03/08 04:36:54;;;;;;;11.70;8.93;;;;;;;-1.60;84.63;100023.16;5094132;28;20255;-75
2022/03/08 04:39:28;;;;;;;11.80;9.60;;;;;;;-1.59;85.31;100031.88;5058368;28;20224;-77
2022/03/08 04:42:04;;;;;;;11.00;9.90;;;;;;;-1.58;86.27;100025.63;5098309;22;20295;-75
2022/03/08 04:44:33;;;;;;;10.20;9.17;;;;;;;-1.49;87.58;100024.81;5103883;28;20252;-74
2022/03/08 04:47:08;;;;;;;11.10;9.30;;;;;;;-1.53;88.74;100021.63;5077230;28;20610;-74
2022/03/08 04:49:41;;;;;;;11.60;9.23;;;;;;;-1.48;89.29;100023.88;5084780;22;20228;-73
2022/03/08 04:52:09;;;;;;;11.13;9.93;;;;;;;-1.44;89.34;100018.22;5073981;28;20284;-74
2022/03/08 04:54:39;;;;;;;13.23;9.67;;;;;;;-1.34;88.53;100020.88;5070769;28;20229;-74
2022/03/08 04:57:11;;;;;;;11.47;9.73;;;;;;;-1.35;86.48;100014.78;5054115;28;20240;-75
2022/03/08 04:59:43;;;;;;;11.23;9.27;;;;;;;-1.36;86.66;100023.66;5071887;28;20316;-78
2022/03/08 05:02:20;;;;;;;11.10;8.97;;;;;;;-1.33;86.55;100014.66;5070465;28;20225;-74
2022/03/08 05:04:53;;;;;;;12.20;10.00;;;;;;;-1.38;85.94;100020.31;5077800;22;20224;-75
2022/03/08 05:07:24;;;;;;;11.60;9.90;;;;;;;-1.47;86.95;100007.97;5072149;28;20225;-76
2022/03/08 05:09:58;;;;;;;12.90;10.13;;;;;;;-1.39;87.57;100016.00;5096740;28;20229;-74
2022/03/08 05:12:30;;;;;;;11.27;8.90;;;;;;;-1.51;87.22;100011.84;5098358;23;20634;-73
2022/03/08 05:15:08;;;;;;;10.73;9.63;;;;;;;-1.57;87.64;100007.09;5090106;28;20292;-76
2022/03/08 05:17:50;;;;;;;10.63;9.33;;;;;;;-1.59;89.13;100010.84;5080678;22;20233;-76
2022/03/08 05:20:26;;;;;;;10.00;8.90;;;;;;;-1.60;90.12;100010.00;5069372;28;20228;-74
2022/03/08 05:23:00;;;;;;;11.00;9.27;;;;;;;-1.53;89.69;100012.91;5066433;28;20556;-77
2022/03/08 05:25:35;;;;;;;11.57;9.90;;;;;;;-1.48;90.12;100010.72;5074559;28;20295;-74
2022/03/08 05:28:04;;;;;;;12.77;10.27;;;;;;;-1.48;88.82;100008.09;5093941;23;20684;-76
2022/03/08 05:30:34;;;;;;;11.40;9.73;;;;;;;-1.47;88.36;100015.84;5070073;23;20252;-74
2022/03/08 05:33:02;;;;;;;11.07;8.90;;;;;;;-1.57;87.84;100014.16;5090173;28;20758;-74
2022/03/08 05:35:31;;;;;;;11.40;9.80;;;;;;;-1.57;86.93;100011.53;5090118;28;20260;-76
2022/03/08 05:38:02;;;;;;;11.20;10.00;;;;;;;-1.59;86.28;100026.63;5082823;28;20229;-76
2022/03/08 05:40:57;;;;;;;10.80;8.90;;;;;;;-1.68;86.79;100012.44;5082826;28;20233;-75
2022/03/08 05:43:31;;;;;;;10.90;9.60;;;;;;;-1.67;86.70;100021.16;5081822;28;20208;-75
2022/03/08 05:46:02;;;;;;;11.27;9.53;;;;;;;-1.65;85.98;100016.63;5027870;28;20222;-74
2022/03/08 05:48:38;;;;;;;10.87;9.37;;;;;;;-1.59;85.46;100016.94;5083934;23;20303;-74
2022/03/08 05:51:15;;;;;;;11.90;9.93;;;;;;;-1.56;84.75;100011.41;5088623;28;20220;-74
2022/03/08 05:53:45;;;;;;;11.27;9.40;;;;;;;-1.55;84.33;100023.59;5088861;28;20265;-74
2022/03/08 05:56:16;;;;;;;11.90;9.37;;;;;;;-1.54;84.23;100019.97;5089638;28;20243;-76
2022/03/08 05:58:44;;;;;;;13.53;9.33;;;;;;;-1.46;84.65;100028.03;5089669;28;20221;-74
2022/03/08 06:01:19;;;;;;;12.40;10.03;;;;;;;-1.43;84.43;100026.94;5088684;28;20225;-74
2022/03/08 06:03:46;;;;;;;11.27;9.40;;;;;;;-1.36;84.05;100020.19;5095131;22;20279;-75
2022/03/08 06:06:19;;;;;;;13.93;10.03;;;;;;;-1.33;84.39;100027.78;5085049;22;20293;-75
2022/03/08 06:08:49;;;;;;;11.77;9.17;;;;;;;-1.27;84.45;100023.81;5052659;28;20230;-77
2022/03/08 06:11:20;;;;;;;11.47;9.53;;;;;;;-1.18;84.22;100029.09;5055348;22;20345;-75
2022/03/08 06:13:50;;;;;;;11.37;9.63;;;;;;;-1.09;83.40;100027.44;5054404;28;20229;-76
2022/03/08 06:16:18;;;;;;;11.33;9.10;;;;;;;-0.99;82.79;100023.03;5063303;28;20222;-74
2022/03/08 06:18:51;;;;;;;11.60;9.27;;;;;;;-0.89;81.79;100031.78;5049933;28;20218;-76
2022/03/08 06:21:20;;;;;;;11.57;9.27;;;;;;;-0.70;80.37;100031.75;5049537;28;20209;-77
2022/03/08 06:23:47;;;;;;;12.00;8.90;;;;;;;-0.43;78.45;100027.63;5048767;28;20256;-76
2022/03/08 06:26:18;;;;;;;11.40;9.10;;;;;;;-0.27;76.76;100026.06;5033983;28;20236;-78
2022/03/08 06:28:54;;;;;;;11.30;8.80;;;;;;;-0.15;75.75;100032.84;5057246;28;20563;-75
2022/03/08 06:31:23;;;;;;;11.30;9.20;;;;;;;-0.05;75.22;100020.47;5071399;22;20239;-76
2022/03/08 06:34:09;;;;;;;11.97;9.50;;;;;;;0.11;74.65;100022.50;5067537;22;20249;-75
2022/03/08 06:36:52;;;;;;;12.57;8.73;;;;;;;0.23;73.78;100024.03;5046150;23;20282;-76
2022/03/08 06:39:24;;;;;;;11.40;9.37;;;;;;;0.39;72.66;100026.84;5064563;23;20225;-75
2022/03/08 06:41:56;;;;;;;11.87;9.03;;;;;;;0.66;70.61;100027.81;5064928;28;20218;-75
2022/03/08 06:44:31;;;;;;;10.43;8.50;;;;;;;0.87;69.08;100038.97;5049624;28;20221;-77
2022/03/08 06:47:12;;;;;;;11.90;8.80;;;;;;;1.00;68.46;100026.25;5055510;22;20299;-76
2022/03/08 06:49:42;;;;;;;10.07;8.27;;;;;;;1.15;68.40;100031.84;5048211;28;20321;-75
2022/03/08 06:52:16;;;;;;;10.03;9.00;;;;;;;1.25;67.15;100036.09;5044176;28;20230;-75
2022/03/08 06:54:51;;;;;;;11.57;8.97;;;;;;;1.46;65.81;100042.88;5055286;23;20361;-75
2022/03/08 06:57:20;;;;;;;10.13;8.50;;;;;;;1.70;64.66;100043.91;5085216;28;20232;-75
2022/03/08 06:59:49;;;;;;;10.40;8.17;;;;;;;1.95;62.43;100046.75;5085330;28;20231;-75
2022/03/08 07:02:31;;;;;;;11.20;9.00;;;;;;;1.94;62.62;100045.09;5089309;28;20288;-75
2022/03/08 07:05:09;;;;;;;9.23;8.23;;;;;;;1.95;63.02;100047.59;5039246;28;20220;-76
2022/03/08 07:07:40;;;;;;;10.10;9.00;;;;;;;2.05;62.65;100043.00;5064494;22;20236;-77
2022/03/08 07:10:10;;;;;;;12.60;9.80;;;;;;;2.22;62.87;100058.00;5047213;28;20538;-75
2022/03/08 07:12:43;;;;;;;15.33;10.47;;;;;;;2.20;64.78;100064.41;5044285;28;20248;-75
2022/03/08 07:15:21;;;;;;;10.53;9.30;;;;;;;2.29;63.98;100065.31;5054884;28;20629;-75
2022/03/08 07:17:56;;;;;;;10.83;9.43;;;;;;;2.31;63.29;100065.97;5043896;28;20242;-75
2022/03/08 07:20:30;;;;;;;10.13;8.63;;;;;;;2.40;61.95;100070.31;5071289;22;20242;-75
2022/03/08 07:23:02;;;;;;;11.07;9.50;;;;;;;2.43;62.46;100068.19;5055324;28;20241;-75
2022/03/08 07:25:30;;;;;;;12.40;9.57;;;;;;;2.40;62.68;100068.50;5081977;22;20557;-75
2022/03/08 07:28:03;;;;;;;13.37;9.83;;;;;;;2.43;63.12;100059.44;5065551;28;20229;-75
2022/03/08 07:30:56;;;;;;;10.47;9.47;;;;;;;2.45;63.07;100055.66;5062942;28;20233;-75
2022/03/08 07:33:30;;;;;;;13.13;9.93;;;;;;;2.59;63.43;100067.47;5063628;28;20231;-74
2022/03/08 07:36:03;;;;;;;16.20;12.90;;;;;;;2.75;61.78;100072.00;5065377;28;20252;-75
2022/03/08 07:38:35;;;;;;;16.23;11.57;;;;;;;2.87;59.79;100065.44;5047606;28;20235;-75
2022/03/08 07:41:05;;;;;;;15.00;11.00;;;;;;;3.02;59.60;100058.53;5062437;28;20307;-74
2022/03/08 07:43:37;;;;;;;11.47;8.20;;;;;;;3.28;58.24;100061.09;5066168;28;20232;-74
2022/03/08 07:46:10;;;;;;;9.73;8.70;;;;;;;3.39;56.45;100063.44;5062576;28;20225;-74
2022/03/08 07:48:37;;;;;;;9.40;7.83;;;;;;;3.49;56.01;100062.31;5054015;28;20702;-74
2022/03/08 07:51:19;;;;;;;10.13;7.73;;;;;;;3.58;56.25;100057.00;5066175;28;20214;-74
2022/03/08 07:53:49;;;;;;;9.43;7.93;;;;;;;3.57;55.40;100055.34;5066512;28;20271;-74
2022/03/08 07:56:26;;;;;;;10.10;7.93;;;;;;;3.60;55.91;100053.19;5064905;28;20232;-73
2022/03/08 07:58:57;;;;;;;10.63;7.90;;;;;;;3.74;55.47;100060.47;5060369;28;20692;-78
2022/03/08 08:01:24;;;;;;;11.03;7.73;;;;;;;3.85;55.55;100059.31;5053586;28;20657;-77
2022/03/08 08:03:51;;;;;;;10.23;8.10;;;;;;;3.86;55.03;100061.81;5058676;28;20320;-77
2022/03/08 08:06:19;;;;;;;9.93;7.90;;;;;;;3.89;54.69;100056.19;5058317;28;20225;-77
2022/03/08 08:08:45;;;;;;;10.20;7.73;;;;;;;3.93;55.25;100052.19;5063106;28;20220;-79
2022/03/08 08:11:12;;;;;;;11.07;7.83;;;;;;;4.04;54.35;100061.63;5059176;28;20233;-80
2022/03/08 08:13:39;;;;;;;9.13;7.23;;;;;;;3.98;54.27;100055.19;5058485;28;20233;-81
2022/03/08 08:16:06;;;;;;;8.67;6.87;;;;;;;4.10;53.97;100057.50;5058048;28;20316;-80
2022/03/08 08:18:32;;;;;;;9.17;7.07;;;;;;;4.22;54.03;100056.13;5027581;28;20225;-80
2022/03/08 08:21:01;;;;;;;9.50;7.40;;;;;;;4.26;54.01;100047.69;5042449;28;20248;-80
2022/03/08 08:23:29;;;;;;;9.17;7.13;;;;;;;4.42;53.38;100052.97;5043171;28;20232;-80
2022/03/08 08:25:56;;;;;;;10.33;7.63;;;;;;;4.44;53.04;100045.63;5046672;28;20233;-80
2022/03/08 08:28:22;;;;;;;9.77;6.97;;;;;;;4.59;52.91;100052.91;5040930;28;20233;-79
2022/03/08 08:30:49;;;;;;;10.23;7.10;;;;;;;4.49;52.64;100054.91;5038209;28;20282;-78
2022/03/08 08:33:16;;;;;;;8.73;7.23;;;;;;;4.54;52.71;100049.94;5058827;28;20232;-80
2022/03/08 08:35:43;;;;;;;10.77;8.70;;;;;;;4.48;52.57;100053.28;5054450;28;20304;-80
2022/03/08 08:38:10;;;;;;;8.67;7.77;;;;;;;4.64;52.12;100054.03;5059922;28;20356;-80
2022/03/08 08:40:36;;;;;;;10.43;7.40;;;;;;;4.73;52.06;100054.84;5040467;28;20659;-79
2022/03/08 08:43:05;;;;;;;10.70;7.90;;;;;;;4.77;51.61;100054.31;5056612;28;20651;-79
2022/03/08 08:45:33;;;;;;;10.83;7.40;;;;;;;4.87;51.47;100048.81;5057502;28;20248;-80
2022/03/08 08:47:59;;;;;;;8.97;7.50;;;;;;;4.99;51.07;100046.63;5056629;28;20683;-78
2022/03/08 08:50:26;;;;;;;8.53;6.80;;;;;;;5.02;51.37;100048.91;5057005;28;20224;-79
2022/03/08 08:52:54;;;;;;;11.20;7.40;;;;;;;5.03;50.51;100045.25;5058594;28;20316;-79
2022/03/08 08:55:28;;;;;;;9.23;7.23;;;;;;;5.03;51.08;100047.91;5031580;28;20230;-75
2022/03/08 08:57:59;;;;;;;9.23;7.33;;;;;;;5.04;51.09;100044.25;5160957;22;20260;-75
2022/03/08 09:00:29;;;;;;;8.57;7.13;;;;;;;5.06;50.62;100043.06;5069304;22;20316;-75
2022/03/08 09:03:06;;;;;;;11.73;7.80;;;;;;;5.13;51.46;100044.03;5060678;28;20663;-75
2022/03/08 09:05:36;;;;;;;44.77;27.43;;;;;;;5.06;51.60;100039.59;5076838;22;20294;-75
2022/03/08 09:08:14;;;;;;;17.47;12.13;;;;;;;5.12;51.42;100047.69;5051460;22;20267;-73
2022/03/08 09:10:42;;;;;;;9.47;8.10;;;;;;;5.13;51.29;100036.06;5067505;28;20264;-75
2022/03/08 09:13:17;;;;;;;11.03;7.87;;;;;;;5.22;51.51;100032.38;5063933;28;20304;-75
2022/03/08 09:15:51;;;;;;;11.93;8.87;;;;;;;5.11;51.59;100022.13;5070488;28;20650;-75
2022/03/08 09:18:26;;;;;;;10.73;8.43;;;;;;;5.32;50.33;100032.94;5070230;28;20370;-75
2022/03/08 09:21:02;;;;;;;10.57;8.10;;;;;;;5.38;51.97;100031.44;5082586;28;20235;-75
2022/03/08 09:23:40;;;;;;;10.60;8.00;;;;;;;5.46;50.42;100030.56;5090158;28;20232;-75
2022/03/08 09:26:16;;;;;;;8.87;7.53;;;;;;;5.57;49.93;100024.81;5084861;28;20235;-75
2022/03/08 09:28:43;;;;;;;10.37;7.63;;;;;;;5.56;49.76;100026.63;5089321;28;20237;-75
2022/03/08 09:31:14;;;;;;;8.93;6.87;;;;;;;5.66;49.70;100024.56;5086333;28;20209;-75
2022/03/08 09:33:45;;;;;;;8.50;7.13;;;;;;;5.46;49.82;100025.25;5103768;22;20238;-75
2022/03/08 09:36:17;;;;;;;9.73;8.03;;;;;;;5.68;49.43;100013.78;5072824;22;20310;-75
2022/03/08 09:38:58;;;;;;;46.80;30.07;;;;;;;5.61;49.64;100018.13;5073414;23;20229;-76
2022/03/08 09:41:33;;;;;;;11.97;9.00;;;;;;;5.58;49.30;100015.84;5074482;28;20193;-75
2022/03/08 09:44:16;;;;;;;11.57;7.30;;;;;;;5.70;48.54;100012.56;5083070;28;20335;-75
2022/03/08 09:46:50;;;;;;;10.93;8.13;;;;;;;5.93;47.77;100017.06;5072968;22;20703;-75
2022/03/08 09:49:26;;;;;;;8.07;6.80;;;;;;;6.08;48.40;100020.56;5130147;22;20466;-75
2022/03/08 09:52:07;;;;;;;8.27;6.20;;;;;;;5.96;48.06;100022.88;5091634;23;20603;-75
2022/03/08 09:54:39;;;;;;;8.23;5.87;;;;;;;5.90;46.91;100018.25;5091783;22;20355;-75
2022/03/08 09:57:18;;;;;;;8.20;6.17;;;;;;;6.09;47.37;100017.75;5075867;28;20231;-76
2022/03/08 09:59:50;;;;;;;9.63;6.17;;;;;;;6.03;46.84;100013.13;5067916;28;20224;-75
2022/03/08 10:02:26;;;;;;;11.73;10.00;;;;;;;6.24;47.84;100012.44;5054614;28;20224;-75
2022/03/08 10:05:07;;;;;;;6.93;5.73;;;;;;;6.42;46.11;100012.09;5085119;23;20226;-75
2022/03/08 10:07:39;;;;;;;7.37;6.57;;;;;;;6.61;45.48;100030.16;5054859;23;20243;-76
2022/03/08 10:10:15;;;;;;;7.37;5.00;;;;;;;7.17;43.45;100017.97;5043719;28;20225;-75
2022/03/08 10:13:05;;;;;;;9.57;6.33;;;;;;;7.33;43.25;100020.38;5062000;28;20237;-75
2022/03/08 10:15:38;;;;;;;10.33;6.27;;;;;;;7.23;43.92;100022.50;5049492;22;20252;-76
2022/03/08 10:18:12;;;;;;;7.77;6.03;;;;;;;7.60;42.80;100026.00;5036834;28;20710;-76
2022/03/08 10:20:44;;;;;;;10.00;6.20;;;;;;;7.69;42.08;100023.00;5065588;23;20230;-75
2022/03/08 10:23:22;;;;;;;7.63;5.50;;;;;;;7.32;41.76;100023.25;5062267;28;20268;-75
2022/03/08 10:26:02;;;;;;;7.07;6.27;;;;;;;7.36;42.05;100021.84;5067806;28;20300;-75
2022/03/08 10:28:59;;;;;;;6.77;6.07;;;;;;;7.65;42.23;100016.38;5181926;22;20236;-75
2022/03/08 10:31:33;;;;;;;8.20;6.33;;;;;;;7.62;41.68;100022.09;5057809;23;20224;-76
2022/03/08 10:34:08;;;;;;;8.70;6.40;;;;;;;7.93;41.21;100027.91;5045121;28;20260;-75
2022/03/08 10:36:42;;;;;;;8.37;6.43;;;;;;;7.65;41.85;100018.25;5071964;22;20252;-75
2022/03/08 10:39:16;;;;;;;9.47;6.67;;;;;;;7.81;41.79;100020.63;5075039;23;20240;-76
2022/03/08 10:42:31;;;;;;;7.07;6.00;;;;;;;7.29;42.09;100028.94;5074111;22;20225;-75
2022/03/08 10:45:18;;;;;;;8.77;7.87;;;;;;;7.38;41.20;100019.81;5074726;28;20239;-75
2022/03/08 10:47:53;;;;;;;7.00;5.03;;;;;;;7.26;40.56;100008.81;5079086;28;20575;-75
2022/03/08 10:50:30;;;;;;;6.63;4.90;;;;;;;7.58;40.49;100015.50;5090452;23;20585;-75
2022/03/08 10:53:00;;;;;;;9.20;6.13;;;;;;;8.00;41.47;100011.97;5085190;22;20237;-76
2022/03/08 10:55:52;;;;;;;11.73;9.27;;;;;;;8.13;41.45;100005.88;5049108;28;20229;-75
2022/03/08 10:58:24;;;;;;;10.63;7.00;;;;;;;7.69;40.53;100017.66;5054094;28;20222;-75
2022/03/08 11:01:16;;;;;;;16.87;10.20;;;;;;;7.88;39.74;100022.34;5053103;23;20246;-75
2022/03/08 11:03:57;;;;;;;10.13;7.80;;;;;;;7.64;40.45;100013.91;5045183;28;20233;-75
2022/03/08 11:06:29;;;;;;;6.63;5.27;;;;;;;7.51;40.34;100012.75;5060007;23;20228;-75
2022/03/08 11:09:01;;;;;;;5.73;3.80;;;;;;;7.80;39.57;100016.31;5091076;22;20237;-75
2022/03/08 11:11:36;;;;;;;10.63;6.93;;;;;;;7.42;39.92;100010.41;5064959;28;20225;-75
2022/03/08 11:14:04;;;;;;;9.23;7.27;;;;;;;7.27;39.90;100013.16;5065883;28;20221;-75
2022/03/08 11:16:45;;;;;;;38.93;24.27;;;;;;;7.22;41.09;100015.56;5074963;23;20236;-75
2022/03/08 11:19:29;;;;;;;8.17;6.33;;;;;;;7.31;40.38;100003.75;5078747;23;20240;-75
2022/03/08 11:21:58;;;;;;;6.40;4.97;;;;;;;7.47;40.46;100003.50;5046423;28;20233;-75
2022/03/08 11:24:45;;;;;;;6.73;5.70;;;;;;;7.99;40.47;100007.63;5049664;28;20229;-75
2022/03/08 11:27:29;;;;;;;7.93;5.37;;;;;;;7.87;39.49;100007.34;5066168;22;20221;-76
2022/03/08 11:30:29;;;;;;;7.90;5.17;;;;;;;7.76;39.61;100018.53;5048886;28;20240;-75
2022/03/08 11:33:25;;;;;;;7.57;5.07;;;;;;;8.03;38.88;100000.06;5085652;28;20229;-76
2022/03/08 11:36:05;;;;;;;5.53;4.27;;;;;;;8.16;38.05;100005.53;5073349;28;20228;-75
2022/03/08 11:38:39;;;;;;;5.07;4.27;;;;;;;8.44;36.71;99994.84;5066714;28;20232;-75
2022/03/08 11:41:08;;;;;;;5.97;4.53;;;;;;;8.30;36.92;100001.94;5094965;22;20239;-75
2022/03/08 11:43:46;;;;;;;8.40;5.63;;;;;;;8.00;37.50;100014.63;5088550;28;20240;-75
2022/03/08 11:46:19;;;;;;;7.13;5.73;;;;;;;7.53;39.31;100017.91;5094622;23;20748;-75
2022/03/08 11:49:05;;;;;;;8.03;6.10;;;;;;;7.38;39.74;99995.81;5091746;22;20237;-76
2022/03/08 11:52:26;;;;;;;9.73;7.00;;;;;;;7.49;39.43;100001.47;5090201;23;20652;-75
2022/03/08 11:55:03;;;;;;;12.20;8.30;;;;;;;8.06;37.91;100005.88;5088374;23;20224;-75
2022/03/08 11:57:47;;;;;;;17.13;12.27;;;;;;;8.08;37.67;99989.63;5065412;28;20216;-75
2022/03/08 12:00:45;;;;;;;12.53;10.10;;;;;;;8.27;37.62;99988.94;5086013;22;20240;-75